Time;durP1;ratioP1;P1;durP2;ratioP2;P2;SDS_P1;SDS_P2;PMS_P1;PMS_P2;Temp;Humidity;BMP_temperature;BMP_pressure;BME280_temperature;BME280_humidity;BME280_pressure;Samples;Min_cycle;Max_cycle;Signal;HPM_P1;HPM_P2
2022/11/13 00:00:39;;;;;;;9.55;6.60;;;7.80;77.70;;;;;;4164421;28;20170;-85
2022/11/13 00:02:58;;;;;;;9.57;7.10;;;7.70;77.60;;;;;;4168898;28;20091;-86
2022/11/13 00:05:17;;;;;;;9.20;6.75;;;7.70;77.60;;;;;;4167026;28;20682;-85
2022/11/13 00:07:36;;;;;;;10.00;6.38;;;7.60;77.60;;;;;;4164652;28;20036;-85
2022/11/13 00:09:55;;;;;;;8.98;6.50;;;7.70;77.60;;;;;;4164575;28;20049;-85
2022/11/13 00:12:14;;;;;;;12.35;7.93;;;7.50;78.30;;;;;;4166163;28;20113;-85
2022/11/13 00:14:33;;;;;;;13.07;7.15;;;7.60;77.70;;;;;;4162558;28;20087;-84
2022/11/13 00:16:52;;;;;;;10.73;6.45;;;7.50;77.60;;;;;;4165796;28;20045;-84
2022/11/13 00:19:11;;;;;;;13.10;6.75;;;7.50;77.70;;;;;;4166908;28;20036;-84
2022/11/13 00:21:30;;;;;;;10.52;6.82;;;7.40;77.60;;;;;;4165124;28;20083;-84
2022/11/13 00:23:50;;;;;;;9.45;6.32;;;7.40;77.70;;;;;;4163349;28;20087;-84
2022/11/13 00:26:29;;;;;;;10.90;7.03;;;7.50;77.80;;;;;;4163271;28;20040;-85
2022/11/13 00:28:57;;;;;;;12.32;6.93;;;7.30;77.50;;;;;;4166599;28;20107;-84
2022/11/13 00:31:17;;;;;;;13.40;6.30;;;7.30;77.40;;;;;;4163491;28;20052;-84
2022/11/13 00:33:36;;;;;;;12.48;6.72;;;7.30;77.30;;;;;;4164593;28;20055;-85
2022/11/13 00:36:02;;;;;;;10.18;6.40;;;7.30;77.10;;;;;;4166997;28;20069;-84
2022/11/13 00:38:21;;;;;;;11.25;7.20;;;7.20;77.00;;;;;;4164596;28;20122;-84
2022/11/13 00:40:41;;;;;;;10.80;6.82;;;7.30;77.20;;;;;;4165855;28;20453;-85
2022/11/13 00:43:00;;;;;;;10.32;7.10;;;7.10;77.20;;;;;;4165144;28;20040;-84
2022/11/13 00:45:19;;;;;;;13.48;7.32;;;7.10;77.40;;;;;;4166837;28;20164;-85
2022/11/13 00:47:38;;;;;;;13.70;7.90;;;7.10;77.50;;;;;;4163180;28;20056;-85
2022/11/13 00:49:57;;;;;;;11.90;7.10;;;7.10;77.60;;;;;;4167216;28;20066;-86
2022/11/13 00:52:16;;;;;;;10.93;7.30;;;7.10;77.60;;;;;;4166832;28;20576;-84
2022/11/13 00:54:36;;;;;;;9.75;6.80;;;7.10;77.60;;;;;;4163906;28;20028;-85
2022/11/13 00:56:55;;;;;;;12.77;7.47;;;7.00;77.50;;;;;;4164914;28;20150;-85
2022/11/13 00:59:14;;;;;;;14.52;9.15;;;7.00;77.60;;;;;;4166882;28;20049;-85
2022/11/13 01:01:34;;;;;;;16.20;8.50;;;7.00;77.60;;;;;;4164607;28;20048;-83
2022/11/13 01:03:54;;;;;;;18.02;9.63;;;6.90;77.50;;;;;;4168035;28;20063;-85
2022/11/13 01:06:16;;;;;;;20.70;9.77;;;6.90;77.50;;;;;;4165779;28;20052;-84
2022/11/13 01:08:36;;;;;;;16.48;9.38;;;6.90;77.60;;;;;;4174355;28;20067;-83
2022/11/13 01:10:55;;;;;;;20.17;11.27;;;7.00;77.70;;;;;;4160532;28;20473;-84
2022/11/13 01:13:15;;;;;;;16.45;9.88;;;6.90;78.40;;;;;;4160704;28;20049;-84
2022/11/13 01:15:36;;;;;;;16.23;9.73;;;6.90;77.70;;;;;;4160258;28;20086;-84
2022/11/13 01:17:56;;;;;;;16.23;9.27;;;6.80;77.70;;;;;;4162285;28;20450;-84
2022/11/13 01:20:15;;;;;;;17.55;9.63;;;6.90;77.80;;;;;;4162471;28;20108;-85
2022/11/13 01:22:34;;;;;;;15.85;8.25;;;6.80;77.70;;;;;;4164236;28;20101;-84
2022/11/13 01:24:53;;;;;;;15.77;8.88;;;6.80;77.70;;;;;;4167706;28;20422;-85
2022/11/13 01:27:14;;;;;;;17.23;9.20;;;6.80;77.70;;;;;;4161721;28;20426;-85
2022/11/13 01:29:33;;;;;;;12.48;7.18;;;6.90;77.60;;;;;;4160553;28;20047;-84
2022/11/13 01:31:52;;;;;;;15.75;8.27;;;6.70;77.40;;;;;;4170973;28;20036;-83
2022/11/13 01:34:11;;;;;;;13.27;7.78;;;6.70;77.40;;;;;;4168648;28;20041;-85
2022/11/13 01:36:31;;;;;;;14.23;8.40;;;6.70;77.40;;;;;;4162921;28;20029;-84
2022/11/13 01:38:50;;;;;;;15.80;8.18;;;6.60;77.30;;;;;;4162052;28;20104;-83
2022/11/13 01:41:19;;;;;;;14.65;7.88;;;6.60;77.30;;;;;;4160279;28;20084;-84
2022/11/13 01:43:38;;;;;;;11.65;7.43;;;6.60;77.10;;;;;;4161310;28;20591;-84
2022/11/13 01:45:57;;;;;;;14.05;8.10;;;6.70;77.20;;;;;;4162705;28;20216;-85
2022/11/13 01:48:16;;;;;;;11.63;7.20;;;6.60;77.10;;;;;;4158699;28;20085;-84
2022/11/13 01:50:35;;;;;;;13.40;7.25;;;6.60;77.20;;;;;;4158763;28;20096;-84
2022/11/13 01:52:55;;;;;;;12.52;7.57;;;6.50;77.20;;;;;;4156844;28;20032;-84
2022/11/13 01:55:17;;;;;;;15.00;8.57;;;6.50;77.30;;;;;;4161727;28;20084;-86
2022/11/13 01:57:37;;;;;;;14.38;8.40;;;6.60;77.30;;;;;;4159928;28;20039;-85
2022/11/13 02:00:01;;;;;;;13.38;8.40;;;6.40;77.20;;;;;;4161293;28;20040;-85
2022/11/13 02:02:21;;;;;;;18.92;8.35;;;6.50;77.40;;;;;;4165017;28;20038;-85
2022/11/13 02:04:40;;;;;;;15.85;7.90;;;6.40;77.40;;;;;;4160375;28;20068;-85
2022/11/13 02:07:09;;;;;;;16.67;8.52;;;6.40;77.50;;;;;;4162887;28;20091;-83
2022/11/13 02:09:38;;;;;;;17.77;7.85;;;6.40;77.50;;;;;;4160602;28;20044;-83
2022/11/13 02:11:58;;;;;;;11.48;7.65;;;6.40;77.60;;;;;;4162752;28;20064;-83
2022/11/13 02:14:20;;;;;;;12.35;7.10;;;6.60;77.80;;;;;;4165156;28;20045;-82
2022/11/13 02:16:42;;;;;;;15.32;8.45;;;6.40;77.70;;;;;;4166541;28;20453;-83
2022/11/13 02:19:07;;;;;;;16.33;9.35;;;6.40;77.80;;;;;;4165704;28;20603;-84
2022/11/13 02:22:02;;;;;;;16.42;8.52;;;6.40;77.80;;;;;;4163532;28;20040;-83
2022/11/13 02:24:29;;;;;;;13.65;8.15;;;6.40;77.80;;;;;;4164610;28;20084;-83
2022/11/13 02:26:50;;;;;;;13.63;8.25;;;6.40;77.60;;;;;;4169867;28;20040;-83
2022/11/13 02:29:09;;;;;;;15.07;8.63;;;6.40;77.60;;;;;;4164718;28;20447;-83
2022/11/13 02:31:29;;;;;;;18.15;9.65;;;6.40;77.60;;;;;;4162686;28;20139;-82
2022/11/13 02:33:48;;;;;;;14.50;8.60;;;6.40;77.60;;;;;;4176467;28;20105;-82
2022/11/13 02:36:09;;;;;;;17.75;8.73;;;6.40;77.50;;;;;;4166665;28;20595;-83
2022/11/13 02:38:28;;;;;;;14.52;8.90;;;6.40;77.60;;;;;;4164303;28;20187;-84
2022/11/13 02:40:48;;;;;;;17.15;8.55;;;6.50;77.80;;;;;;4169080;28;20517;-83
2022/11/13 02:43:07;;;;;;;15.23;8.18;;;6.50;77.90;;;;;;4166726;28;20761;-83
2022/11/13 02:45:26;;;;;;;17.77;8.20;;;6.40;77.90;;;;;;4166325;28;20032;-84
2022/11/13 02:47:45;;;;;;;13.60;8.30;;;6.30;77.90;;;;;;4166645;28;20048;-83
2022/11/13 02:50:06;;;;;;;17.35;9.52;;;6.30;77.90;;;;;;4166088;28;20653;-83
2022/11/13 02:52:26;;;;;;;14.80;8.75;;;6.30;77.90;;;;;;4168435;28;20107;-83
2022/11/13 02:54:45;;;;;;;17.10;8.60;;;6.30;77.90;;;;;;4167698;28;20124;-83
2022/11/13 02:57:04;;;;;;;18.55;9.70;;;6.30;78.00;;;;;;4167667;28;20053;-83
2022/11/13 02:59:22;;;;;;;18.88;9.32;;;6.30;78.00;;;;;;4165833;28;20060;-84
2022/11/13 03:01:42;;;;;;;20.02;9.50;;;6.50;78.20;;;;;;4166134;28;20041;-83
2022/11/13 03:04:01;;;;;;;16.70;8.65;;;6.40;78.20;;;;;;4165011;28;20137;-84
2022/11/13 03:06:20;;;;;;;15.13;9.32;;;6.40;78.20;;;;;;4171301;28;20107;-83
2022/11/13 03:08:39;;;;;;;16.73;9.05;;;6.40;78.30;;;;;;4165556;28;20076;-84
2022/11/13 03:10:58;;;;;;;16.00;9.50;;;6.40;78.30;;;;;;4166217;28;20185;-82
2022/11/13 03:13:17;;;;;;;20.90;9.30;;;6.40;78.40;;;;;;4165535;28;20050;-83
2022/11/13 03:15:36;;;;;;;14.45;8.52;;;6.40;79.10;;;;;;4166191;28;20080;-83
2022/11/13 03:17:56;;;;;;;16.95;9.38;;;6.40;78.40;;;;;;4165753;28;20063;-86
2022/11/13 03:20:15;;;;;;;18.00;9.05;;;6.40;78.50;;;;;;4164801;28;20086;-87
2022/11/13 03:22:35;;;;;;;16.73;9.40;;;6.50;78.60;;;;;;4163366;28;20067;-83
2022/11/13 03:24:54;;;;;;;16.20;9.43;;;6.60;78.70;;;;;;4163385;28;20036;-83
2022/11/13 03:27:13;;;;;;;18.42;9.77;;;6.50;78.70;;;;;;4168471;28;20035;-83
2022/11/13 03:29:32;;;;;;;19.17;10.82;;;6.50;78.80;;;;;;4164475;28;20079;-83
2022/11/13 03:31:52;;;;;;;20.70;9.82;;;6.60;78.90;;;;;;4166407;28;20581;-83
2022/11/13 03:34:11;;;;;;;20.67;10.32;;;6.50;78.80;;;;;;4166563;28;20036;-83
2022/11/13 03:36:30;;;;;;;20.90;9.98;;;6.50;78.80;;;;;;4167308;28;20517;-83
2022/11/13 03:38:49;;;;;;;18.45;9.70;;;6.50;78.90;;;;;;4164854;28;20032;-83
2022/11/13 03:41:08;;;;;;;17.42;9.25;;;6.50;78.90;;;;;;4161922;28;20037;-82
2022/11/13 03:43:29;;;;;;;16.35;8.95;;;6.60;79.10;;;;;;4165098;28;20042;-83
2022/11/13 03:45:48;;;;;;;17.33;8.82;;;6.60;79.10;;;;;;4164771;28;20073;-83
2022/11/13 03:48:08;;;;;;;22.67;9.60;;;6.60;79.10;;;;;;4165692;28;20052;-83
2022/11/13 03:50:27;;;;;;;16.20;9.70;;;6.60;79.20;;;;;;4163195;28;20032;-83
2022/11/13 03:52:46;;;;;;;19.92;10.70;;;6.60;79.10;;;;;;4165020;28;20044;-84
2022/11/13 03:55:05;;;;;;;16.52;9.68;;;6.70;79.20;;;;;;4163713;28;20056;-83
2022/11/13 03:57:25;;;;;;;21.20;10.07;;;6.60;79.10;;;;;;4168259;28;20037;-83
2022/11/13 03:59:44;;;;;;;16.67;9.27;;;6.70;79.20;;;;;;4163827;28;20048;-84
2022/11/13 04:02:03;;;;;;;19.10;10.35;;;6.70;79.30;;;;;;4163931;28;20088;-84
2022/11/13 04:04:22;;;;;;;18.02;10.50;;;6.70;79.30;;;;;;4160868;28;20088;-83
2022/11/13 04:06:41;;;;;;;19.70;9.63;;;6.70;79.40;;;;;;4162932;28;20067;-82
2022/11/13 04:09:01;;;;;;;20.90;10.30;;;6.70;79.30;;;;;;4162553;28;20121;-83
2022/11/13 04:11:20;;;;;;;20.27;10.13;;;6.70;79.30;;;;;;4166950;28;20106;-84
2022/11/13 04:13:39;;;;;;;15.50;9.48;;;6.70;79.30;;;;;;4160213;28;20068;-83
2022/11/13 04:15:58;;;;;;;18.25;9.80;;;6.80;79.40;;;;;;4166930;28;20047;-83
2022/11/13 04:18:17;;;;;;;17.85;9.38;;;6.80;79.40;;;;;;4164480;28;20506;-83
2022/11/13 04:20:36;;;;;;;17.33;9.35;;;6.80;79.40;;;;;;4165738;28;20044;-82
2022/11/13 04:22:56;;;;;;;20.10;10.63;;;7.00;79.50;;;;;;4161579;28;20410;-83
2022/11/13 04:25:15;;;;;;;17.52;10.02;;;6.80;79.30;;;;;;4165403;28;20040;-82
2022/11/13 04:27:35;;;;;;;17.88;9.63;;;6.80;79.20;;;;;;4164355;28;20056;-84
2022/11/13 04:29:54;;;;;;;17.40;9.32;;;6.80;79.30;;;;;;4167130;28;20044;-83
2022/11/13 04:32:13;;;;;;;20.20;9.60;;;6.80;79.20;;;;;;4165402;28;20045;-83
2022/11/13 04:34:32;;;;;;;24.55;9.82;;;6.80;79.20;;;;;;4165695;28;20040;-83
2022/11/13 04:36:51;;;;;;;18.15;9.50;;;6.80;79.20;;;;;;4163144;28;20303;-84
2022/11/13 04:39:10;;;;;;;17.95;9.82;;;6.80;79.10;;;;;;4163269;28;20040;-84
2022/11/13 04:44:07;;;;;;;23.20;9.50;;;6.80;78.90;;;;;;4170868;28;20052;-84
2022/11/13 04:46:26;;;;;;;16.73;8.85;;;6.80;78.90;;;;;;4163796;28;20079;-83
2022/11/13 04:48:45;;;;;;;15.10;9.00;;;6.80;78.70;;;;;;4162780;28;20049;-84
2022/11/13 04:51:05;;;;;;;18.40;9.85;;;6.70;78.50;;;;;;4162995;28;20045;-84
2022/11/13 04:53:24;;;;;;;16.98;9.40;;;6.70;79.20;;;;;;4167159;28;20049;-84
2022/11/13 04:55:43;;;;;;;16.60;9.38;;;6.70;78.50;;;;;;4167047;28;20056;-84
2022/11/13 04:58:02;;;;;;;18.02;9.57;;;6.70;78.60;;;;;;4166047;28;20156;-83
2022/11/13 05:00:22;;;;;;;17.83;9.68;;;6.70;78.60;;;;;;4161070;28;20157;-84
2022/11/13 05:02:41;;;;;;;14.48;8.68;;;6.60;78.50;;;;;;4165032;28;20040;-83
2022/11/13 05:05:00;;;;;;;18.35;10.13;;;6.60;78.30;;;;;;4165768;28;20102;-84
2022/11/13 05:07:20;;;;;;;18.85;10.43;;;6.60;78.20;;;;;;4160397;28;20092;-84
2022/11/13 05:09:39;;;;;;;16.65;9.52;;;6.70;78.30;;;;;;4166148;28;20255;-85
2022/11/13 05:11:58;;;;;;;20.85;10.18;;;6.60;78.30;;;;;;4167071;28;20456;-84
2022/11/13 05:14:17;;;;;;;19.58;10.27;;;6.60;78.30;;;;;;4162550;28;20080;-84
2022/11/13 05:16:36;;;;;;;16.45;8.82;;;6.50;78.40;;;;;;4165675;28;20048;-83
2022/11/13 05:18:57;;;;;;;17.58;8.88;;;6.50;78.40;;;;;;4163630;28;20080;-83
2022/11/13 05:21:16;;;;;;;16.42;8.60;;;6.50;78.50;;;;;;4164743;28;20127;-83
2022/11/13 05:23:36;;;;;;;19.20;9.00;;;6.50;78.40;;;;;;4165205;28;20060;-83
2022/11/13 05:26:04;;;;;;;18.15;9.73;;;6.50;78.40;;;;;;4163917;28;20047;-83
2022/11/13 05:28:25;;;;;;;15.98;8.77;;;6.40;79.00;;;;;;4161140;28;20041;-84
2022/11/13 05:30:44;;;;;;;16.42;9.05;;;6.40;78.40;;;;;;4163566;28;20036;-83
2022/11/13 05:33:03;;;;;;;17.23;9.52;;;6.40;78.30;;;;;;4165153;28;20124;-84
2022/11/13 05:35:22;;;;;;;16.60;9.18;;;6.40;78.40;;;;;;4162034;28;20060;-84
2022/11/13 05:37:42;;;;;;;17.77;9.45;;;6.40;78.40;;;;;;4165667;28;20045;-84
2022/11/13 05:40:01;;;;;;;17.50;8.98;;;6.40;78.50;;;;;;4167267;28;20083;-84
2022/11/13 05:42:20;;;;;;;17.33;9.25;;;6.40;78.50;;;;;;4167062;28;20108;-84
2022/11/13 05:44:39;;;;;;;15.65;8.63;;;6.40;78.60;;;;;;4167168;28;20032;-83
2022/11/13 05:47:00;;;;;;;20.63;9.10;;;6.50;78.70;;;;;;4167041;28;20037;-84
2022/11/13 05:49:19;;;;;;;13.45;7.50;;;6.30;78.60;;;;;;4168296;28;20068;-84
2022/11/13 05:51:38;;;;;;;16.13;8.25;;;6.30;78.50;;;;;;4168394;28;20068;-83
2022/11/13 05:53:58;;;;;;;15.55;8.75;;;6.30;78.60;;;;;;4167551;28;20037;-84
2022/11/13 05:56:26;;;;;;;16.35;8.55;;;6.30;78.60;;;;;;4168054;28;20036;-84
2022/11/13 05:58:47;;;;;;;17.42;9.20;;;6.30;78.60;;;;;;4167482;28;20036;-84
2022/11/13 06:01:11;;;;;;;17.25;9.38;;;6.30;78.50;;;;;;4178851;28;20096;-83
2022/11/13 06:03:30;;;;;;;16.85;9.55;;;6.30;78.40;;;;;;4166864;28;20040;-85
2022/11/13 06:05:49;;;;;;;16.55;9.60;;;6.20;78.40;;;;;;4166599;28;20072;-84
2022/11/13 06:08:08;;;;;;;14.50;8.13;;;6.20;78.30;;;;;;4162976;28;20048;-84
2022/11/13 06:10:27;;;;;;;20.23;8.77;;;6.30;78.50;;;;;;4165141;28;20044;-84
2022/11/13 06:12:46;;;;;;;14.20;8.73;;;6.20;78.30;;;;;;4160640;28;20084;-84
2022/11/13 06:15:06;;;;;;;14.07;7.90;;;6.20;78.50;;;;;;4162962;28;20040;-84
2022/11/13 06:17:27;;;;;;;15.90;8.13;;;6.20;78.20;;;;;;4162916;28;20564;-85
2022/11/13 06:19:47;;;;;;;18.98;9.65;;;6.10;78.10;;;;;;4168828;28;20071;-84
2022/11/13 06:22:06;;;;;;;18.65;9.00;;;6.20;78.10;;;;;;4163784;28;20049;-85
2022/11/13 06:24:25;;;;;;;21.52;9.15;;;6.10;78.00;;;;;;4164786;28;20248;-84
2022/11/13 06:26:45;;;;;;;14.73;8.50;;;6.00;77.70;;;;;;4169993;28;20105;-83
2022/11/13 06:29:05;;;;;;;15.45;8.82;;;6.00;77.60;;;;;;4168013;28;20037;-84
2022/11/13 06:31:27;;;;;;;13.55;7.45;;;6.10;77.70;;;;;;4169170;28;20036;-84
2022/11/13 06:33:46;;;;;;;17.13;8.90;;;6.00;77.60;;;;;;4163565;28;20101;-84
2022/11/13 06:36:10;;;;;;;17.40;8.55;;;5.90;77.60;;;;;;4169204;28;20032;-84
2022/11/13 06:38:36;;;;;;;16.98;8.80;;;5.90;77.60;;;;;;4167649;28;20036;-85
2022/11/13 06:40:56;;;;;;;17.42;9.57;;;5.90;77.60;;;;;;4170854;28;20415;-84
2022/11/13 06:43:15;;;;;;;14.98;8.25;;;5.80;77.60;;;;;;4168169;28;20076;-83
2022/11/13 06:45:35;;;;;;;15.63;8.38;;;5.80;77.60;;;;;;4167396;28;20049;-84
2022/11/13 06:47:54;;;;;;;17.92;9.32;;;5.70;77.60;;;;;;4170594;28;20501;-84
2022/11/13 06:50:13;;;;;;;19.73;10.27;;;5.70;77.70;;;;;;4164259;28;20048;-83
2022/11/13 06:52:33;;;;;;;18.52;9.65;;;5.70;77.80;;;;;;4164471;28;20040;-84
2022/11/13 06:54:52;;;;;;;16.73;9.35;;;5.70;78.00;;;;;;4159084;28;20053;-84
2022/11/13 06:57:11;;;;;;;21.30;9.70;;;5.70;78.00;;;;;;4166787;28;20041;-83
2022/11/13 06:59:30;;;;;;;19.30;9.48;;;5.60;78.00;;;;;;4161489;28;20553;-84
2022/11/13 07:01:50;;;;;;;17.60;9.70;;;5.80;78.20;;;;;;4167381;28;20044;-85
2022/11/13 07:04:11;;;;;;;17.98;9.27;;;5.60;78.20;;;;;;4165958;28;20032;-85
2022/11/13 07:06:35;;;;;;;18.05;10.10;;;5.60;78.40;;;;;;4166536;28;20112;-85
2022/11/13 07:08:54;;;;;;;18.05;9.90;;;5.60;78.50;;;;;;4169690;28;20040;-85
2022/11/13 07:11:19;;;;;;;20.30;9.85;;;5.60;78.50;;;;;;4168353;28;20044;-84
2022/11/13 07:13:39;;;;;;;19.50;10.00;;;5.60;78.70;;;;;;4165610;28;20040;-84
2022/11/13 07:16:03;;;;;;;17.92;9.95;;;5.70;78.80;;;;;;4175129;28;20041;-84
2022/11/13 07:18:23;;;;;;;21.05;10.75;;;5.70;78.90;;;;;;4170349;28;20518;-83
2022/11/13 07:20:43;;;;;;;16.58;9.52;;;5.80;79.00;;;;;;4162658;28;20047;-84
2022/11/13 07:23:03;;;;;;;19.85;8.82;;;5.70;79.00;;;;;;4163125;28;20035;-84
2022/11/13 07:25:23;;;;;;;22.30;9.98;;;5.70;79.10;;;;;;4166454;28;20060;-85
2022/11/13 07:27:46;;;;;;;19.90;9.70;;;5.70;79.10;;;;;;4165375;28;20068;-84
2022/11/13 07:30:05;;;;;;;17.60;9.02;;;5.70;78.90;;;;;;4166297;28;20514;-83
2022/11/13 07:32:24;;;;;;;20.27;9.15;;;5.70;78.90;;;;;;4166087;28;20041;-84
2022/11/13 07:34:44;;;;;;;18.50;9.20;;;5.80;78.90;;;;;;4163342;28;20065;-84
2022/11/13 07:37:05;;;;;;;15.68;8.20;;;5.80;79.00;;;;;;4168442;28;20596;-84
2022/11/13 07:39:24;;;;;;;21.77;9.13;;;5.70;79.70;;;;;;4165695;28;20052;-84
2022/11/13 07:41:43;;;;;;;18.85;9.85;;;5.70;78.90;;;;;;4163435;28;20113;-84
2022/11/13 07:44:02;;;;;;;17.65;8.63;;;5.70;78.90;;;;;;4167240;28;20105;-83
2022/11/13 07:46:22;;;;;;;17.38;8.90;;;5.80;79.00;;;;;;4166360;28;20060;-84
2022/11/13 07:48:41;;;;;;;20.85;9.35;;;5.90;78.90;;;;;;4164197;28;20107;-83
2022/11/13 07:51:01;;;;;;;21.48;10.98;;;5.80;78.90;;;;;;4164367;28;20368;-84
2022/11/13 07:53:21;;;;;;;18.20;10.52;;;5.80;78.90;;;;;;4167774;28;20035;-83
2022/11/13 07:55:41;;;;;;;16.35;9.02;;;5.80;78.90;;;;;;4166062;28;20135;-84
2022/11/13 07:58:01;;;;;;;24.40;12.07;;;5.80;79.00;;;;;;4164849;28;20048;-84
2022/11/13 08:00:20;;;;;;;28.52;14.52;;;5.80;79.10;;;;;;4162862;28;20545;-84
2022/11/13 08:02:39;;;;;;;21.48;12.15;;;5.80;79.40;;;;;;4166831;28;20045;-84
2022/11/13 08:04:58;;;;;;;21.55;12.02;;;5.90;80.20;;;;;;4167599;28;20454;-83
2022/11/13 08:07:18;;;;;;;19.73;10.50;;;5.80;79.50;;;;;;4159849;28;20403;-83
2022/11/13 08:09:37;;;;;;;20.17;10.32;;;5.80;79.60;;;;;;4162096;28;20502;-84
2022/11/13 08:11:56;;;;;;;25.33;11.65;;;5.90;79.80;;;;;;4164436;28;20044;-83
2022/11/13 08:14:16;;;;;;;22.63;10.52;;;5.90;79.90;;;;;;4162685;28;20108;-84
2022/11/13 08:16:35;;;;;;;18.00;9.30;;;6.00;80.10;;;;;;4163800;28;20044;-85
2022/11/13 08:18:54;;;;;;;29.50;12.65;;;6.10;80.30;;;;;;4165004;28;20102;-84
2022/11/13 08:21:13;;;;;;;29.00;13.15;;;6.00;80.50;;;;;;4164279;28;20064;-84
2022/11/13 08:23:32;;;;;;;23.33;11.63;;;6.10;80.70;;;;;;4175959;28;20036;-84
2022/11/13 08:25:51;;;;;;;25.60;12.15;;;6.10;80.90;;;;;;4165732;28;20033;-83
2022/11/13 08:28:11;;;;;;;24.45;12.55;;;6.20;81.00;;;;;;4170126;28;20049;-84
2022/11/13 08:30:30;;;;;;;29.35;14.98;;;6.20;81.10;;;;;;4165188;28;20051;-83
2022/11/13 08:32:50;;;;;;;30.35;13.32;;;6.30;81.70;;;;;;4162738;28;20056;-84
2022/11/13 08:35:10;;;;;;;24.08;12.95;;;6.30;81.90;;;;;;4165673;28;20064;-83
2022/11/13 08:37:29;;;;;;;25.08;13.70;;;6.50;82.40;;;;;;4165067;28;20448;-84
2022/11/13 08:39:48;;;;;;;27.13;13.70;;;6.50;82.20;;;;;;4163117;28;20041;-83
2022/11/13 08:42:07;;;;;;;25.42;13.73;;;6.60;82.30;;;;;;4162068;28;20108;-84
2022/11/13 08:44:26;;;;;;;31.80;16.00;;;6.60;82.50;;;;;;4165390;28;20040;-83
2022/11/13 08:46:46;;;;;;;35.85;16.45;;;6.70;83.20;;;;;;4159408;28;20083;-84
2022/11/13 08:49:05;;;;;;;37.90;16.35;;;6.80;84.40;;;;;;4161805;28;20040;-83
2022/11/13 08:51:24;;;;;;;32.97;15.05;;;7.00;84.80;;;;;;4164741;28;20683;-84
2022/11/13 08:53:43;;;;;;;28.45;15.32;;;6.90;84.90;;;;;;4165585;28;20411;-83
2022/11/13 08:56:03;;;;;;;40.53;16.38;;;7.00;85.10;;;;;;4162225;28;20040;-83
2022/11/13 08:58:22;;;;;;;37.97;16.55;;;7.10;85.20;;;;;;4162509;28;20588;-84
2022/11/13 09:00:42;;;;;;;31.42;16.17;;;7.20;85.60;;;;;;4158186;28;20066;-83
2022/11/13 09:03:01;;;;;;;33.13;16.35;;;7.20;85.90;;;;;;4160049;28;20056;-83
2022/11/13 09:05:22;;;;;;;38.15;17.20;;;7.40;86.10;;;;;;4160302;28;20044;-83
2022/11/13 09:07:41;;;;;;;34.17;17.27;;;7.40;86.60;;;;;;4156565;28;20090;-84
2022/11/13 09:10:00;;;;;;;34.05;17.05;;;7.60;86.80;;;;;;4158313;28;20118;-84
2022/11/13 09:12:20;;;;;;;23.48;15.00;;;7.60;86.80;;;;;;4159963;28;20116;-85
2022/11/13 09:14:39;;;;;;;28.75;16.20;;;7.80;86.60;;;;;;4161809;28;20043;-84
2022/11/13 09:16:58;;;;;;;27.38;15.50;;;7.90;87.00;;;;;;4163428;28;20391;-84
2022/11/13 09:19:17;;;;;;;30.27;15.23;;;7.90;87.00;;;;;;4158883;28;20052;-83
2022/11/13 09:21:37;;;;;;;27.30;14.57;;;8.00;86.90;;;;;;4161560;28;20060;-84
2022/11/13 09:23:56;;;;;;;24.13;14.43;;;8.30;86.90;;;;;;4159692;28;20167;-84
2022/11/13 09:26:16;;;;;;;24.63;13.43;;;8.30;86.60;;;;;;4163401;28;20056;-84
2022/11/13 09:28:36;;;;;;;28.67;13.27;;;8.40;86.60;;;;;;4160783;28;20040;-84
2022/11/13 09:30:55;;;;;;;27.67;13.90;;;8.50;86.40;;;;;;4157019;28;20092;-84
2022/11/13 09:33:14;;;;;;;28.13;13.90;;;8.60;86.40;;;;;;4159095;28;20049;-83
2022/11/13 09:35:34;;;;;;;28.35;13.77;;;8.70;86.10;;;;;;4159668;28;20564;-83
2022/11/13 09:37:53;;;;;;;27.75;13.98;;;8.90;86.00;;;;;;4156706;28;20099;-84
2022/11/13 09:40:22;;;;;;;24.67;13.50;;;9.00;86.70;;;;;;4161948;28;20041;-84
2022/11/13 09:42:41;;;;;;;29.23;14.70;;;9.10;85.70;;;;;;4163603;28;20304;-85
2022/11/13 09:45:06;;;;;;;28.48;13.98;;;9.20;85.60;;;;;;4166365;28;20067;-85
2022/11/13 09:47:32;;;;;;;30.55;14.73;;;9.20;85.00;;;;;;4167346;28;20075;-85
2022/11/13 09:50:01;;;;;;;25.08;13.43;;;9.30;84.30;;;;;;4165920;28;20120;-85
2022/11/13 09:52:29;;;;;;;23.33;12.30;;;9.40;84.00;;;;;;4164830;28;20041;-84
2022/11/13 09:54:49;;;;;;;23.20;12.52;;;9.50;83.60;;;;;;4160968;28;20051;-84
2022/11/13 09:57:22;;;;;;;21.52;11.30;;;9.50;83.30;;;;;;4172350;28;20043;-84
2022/11/13 09:59:50;;;;;;;20.52;10.98;;;9.50;83.20;;;;;;4162034;28;20537;-82
2022/11/13 10:02:26;;;;;;;21.65;11.45;;;9.60;83.00;;;;;;4163084;28;20076;-83
2022/11/13 10:04:54;;;;;;;23.50;11.25;;;9.60;82.70;;;;;;4161156;28;20044;-84
2022/11/13 10:07:13;;;;;;;20.58;10.98;;;9.70;82.50;;;;;;4156672;28;20103;-83
2022/11/13 10:10:07;;;;;;;18.92;11.13;;;9.90;82.50;;;;;;4165607;28;20075;-85
2022/11/13 10:12:30;;;;;;;21.63;10.52;;;9.80;82.10;;;;;;4158003;28;20060;-84
2022/11/13 10:14:52;;;;;;;23.08;10.88;;;9.90;81.90;;;;;;4161446;28;20044;-84
2022/11/13 10:17:25;;;;;;;25.33;10.88;;;10.00;81.80;;;;;;4162877;28;20044;-84
2022/11/13 10:19:58;;;;;;;23.98;10.82;;;10.00;81.70;;;;;;4161021;28;20163;-84
2022/11/13 10:22:32;;;;;;;23.65;11.77;;;9.90;81.50;;;;;;4160918;28;20403;-84
2022/11/13 10:24:57;;;;;;;20.58;10.75;;;10.00;81.40;;;;;;4163594;28;20219;-85
2022/11/13 10:27:17;;;;;;;22.08;10.63;;;10.20;81.40;;;;;;4164896;28;20060;-85
2022/11/13 10:29:37;;;;;;;24.95;10.55;;;10.00;81.20;;;;;;4164039;28;20071;-85
2022/11/13 10:31:58;;;;;;;19.60;9.80;;;10.20;81.10;;;;;;4163736;28;20156;-84
2022/11/13 10:34:18;;;;;;;22.00;11.25;;;10.20;80.90;;;;;;4163694;28;20453;-84
2022/11/13 10:36:43;;;;;;;21.42;10.38;;;10.20;80.80;;;;;;4164346;28;20109;-84
2022/11/13 10:39:06;;;;;;;21.52;11.07;;;10.20;80.50;;;;;;4176245;28;20157;-84
2022/11/13 10:41:26;;;;;;;28.52;11.48;;;10.30;80.10;;;;;;4161706;28;20041;-83
2022/11/13 10:43:58;;;;;;;19.23;10.77;;;10.30;80.10;;;;;;4162764;28;20032;-84
2022/11/13 10:46:20;;;;;;;22.08;10.55;;;10.30;80.00;;;;;;4161846;28;20029;-84
2022/11/13 10:48:39;;;;;;;20.42;10.48;;;10.40;79.90;;;;;;4159894;28;20464;-85
2022/11/13 10:51:00;;;;;;;22.45;11.23;;;10.40;79.80;;;;;;4165417;28;20096;-84
2022/11/13 10:53:19;;;;;;;19.42;10.43;;;10.50;79.60;;;;;;4162909;28;20036;-84
2022/11/13 10:55:39;;;;;;;23.63;12.15;;;10.40;79.50;;;;;;4158859;28;20037;-85
2022/11/13 10:58:01;;;;;;;20.02;11.00;;;10.40;79.00;;;;;;4162743;28;20040;-84
2022/11/13 11:00:30;;;;;;;26.52;11.63;;;10.50;78.70;;;;;;4158391;28;20440;-85
2022/11/13 11:02:49;;;;;;;23.80;11.40;;;10.40;78.80;;;;;;4170952;28;20051;-84
2022/11/13 11:05:17;;;;;;;22.00;10.88;;;10.50;79.10;;;;;;4157670;28;20153;-85
2022/11/13 11:07:40;;;;;;;29.00;12.15;;;10.60;79.20;;;;;;4160349;28;20070;-84
2022/11/13 11:09:59;;;;;;;21.80;11.57;;;10.60;79.20;;;;;;4162173;28;20115;-84
2022/11/13 11:12:22;;;;;;;22.27;11.18;;;10.60;79.10;;;;;;4158044;28;20048;-83
2022/11/13 11:14:59;;;;;;;24.08;10.82;;;10.60;78.90;;;;;;4160549;28;20144;-84
2022/11/13 11:17:21;;;;;;;21.13;11.80;;;10.60;78.70;;;;;;4160208;28;20086;-83
2022/11/13 11:19:46;;;;;;;22.15;11.02;;;10.70;78.50;;;;;;4162551;28;20052;-83
2022/11/13 11:22:14;;;;;;;24.50;11.10;;;10.70;78.40;;;;;;4163563;28;20045;-82
2022/11/13 11:24:38;;;;;;;17.58;10.88;;;10.80;78.30;;;;;;4168633;28;20040;-83
2022/11/13 11:27:18;;;;;;;20.60;12.05;;;10.90;78.20;;;;;;4163551;28;20039;-85
2022/11/13 11:29:43;;;;;;;25.05;13.30;;;10.80;77.80;;;;;;4160373;28;20168;-85
2022/11/13 11:32:23;;;;;;;29.35;12.80;;;10.80;77.30;;;;;;4162862;28;20048;-85
2022/11/13 11:35:19;;;;;;;20.20;12.68;;;10.80;77.20;;;;;;4160280;28;20064;-84
2022/11/13 11:37:59;;;;;;;24.50;12.55;;;10.90;76.90;;;;;;4161657;28;20120;-85
2022/11/13 11:40:38;;;;;;;24.23;12.48;;;10.90;76.40;;;;;;4158897;28;20095;-85
2022/11/13 11:43:02;;;;;;;27.25;13.65;;;10.90;76.00;;;;;;4159850;28;20032;-84
2022/11/13 11:45:42;;;;;;;22.65;12.55;;;10.80;75.70;;;;;;4160719;28;20101;-85
2022/11/13 11:48:05;;;;;;;27.58;13.07;;;10.80;75.80;;;;;;4160404;28;20048;-84
2022/11/13 11:50:47;;;;;;;28.67;13.60;;;10.80;75.70;;;;;;4158411;28;20545;-85
2022/11/13 11:53:25;;;;;;;26.92;15.55;;;10.80;75.60;;;;;;4159499;28;20407;-85
2022/11/13 11:55:59;;;;;;;28.40;15.63;;;10.70;74.90;;;;;;4171606;28;20041;-84
2022/11/13 11:59:00;;;;;;;30.98;15.88;;;10.60;74.90;;;;;;4170263;28;20060;-85
2022/11/13 12:01:30;;;;;;;24.75;14.82;;;10.50;74.00;;;;;;4118991;28;20154;-85
2022/11/13 12:04:01;;;;;;;29.50;16.70;;;10.40;74.50;;;;;;4165555;28;20052;-85
2022/11/13 12:06:48;;;;;;;28.92;17.20;;;10.30;74.80;;;;;;4159306;28;20036;-85
2022/11/13 12:09:19;;;;;;;27.55;16.58;;;10.10;75.10;;;;;;4160967;28;20040;-85
2022/11/13 12:11:50;;;;;;;22.27;14.02;;;10.10;75.50;;;;;;4158861;28;20063;-85
2022/11/13 12:14:25;;;;;;;25.55;15.20;;;10.10;75.80;;;;;;4157981;28;20091;-84